createdAt,value
2022-12-14T00:01:39.473Z,59.30
2022-12-14T00:04:07.308Z,57.42
2022-12-14T00:06:35.025Z,60.63
2022-12-14T00:09:04.738Z,59.95
2022-12-14T00:11:33.751Z,70.10
2022-12-14T00:14:02.559Z,56.50
2022-12-14T00:16:31.994Z,56.25
2022-12-14T00:19:00.862Z,56.75
2022-12-14T00:21:28.402Z,58.15
2022-12-14T00:23:57.483Z,53.10
2022-12-14T00:26:27.364Z,54.78
2022-12-14T00:28:55.836Z,56.17
2022-12-14T00:31:23.923Z,57.85
2022-12-14T00:33:51.604Z,57.33
2022-12-14T00:36:19.780Z,57.50
2022-12-14T00:38:46.982Z,55.97
2022-12-14T00:41:14.187Z,57.22
2022-12-14T00:43:41.976Z,56.85
2022-12-14T00:46:09.731Z,64.38
2022-12-14T00:48:37.026Z,53.90
2022-12-14T00:51:04.534Z,59.00
2022-12-14T00:53:31.753Z,60.95
2022-12-14T00:56:06.464Z,59.65
2022-12-14T00:58:33.896Z,61.50
2022-12-14T01:01:06.164Z,61.20
2022-12-14T01:03:34.489Z,66.45
2022-12-14T01:06:02.468Z,56.92
2022-12-14T01:08:36.213Z,58.85
2022-12-14T01:11:07.921Z,53.70
2022-12-14T01:13:35.926Z,62.17
2022-12-14T01:16:08.706Z,52.88
2022-12-14T01:18:37.054Z,54.65
2022-12-14T01:21:11.257Z,60.27
2022-12-14T01:23:38.938Z,56.60
2022-12-14T01:26:06.417Z,56.53
2022-12-14T01:28:35.058Z,63.67
2022-12-14T01:31:30.924Z,55.33
2022-12-14T01:33:58.799Z,51.38
2022-12-14T01:36:30.643Z,61.08
2022-12-14T01:39:00.111Z,57.47
2022-12-14T01:41:31.786Z,61.88
2022-12-14T01:44:04.927Z,51.60
2022-12-14T01:47:01.307Z,60.60
2022-12-14T01:49:37.158Z,59.50
2022-12-14T01:52:12.428Z,61.20
2022-12-14T01:54:48.853Z,61.63
2022-12-14T01:57:17.670Z,61.42
2022-12-14T01:59:46.233Z,56.40
2022-12-14T02:02:15.150Z,57.78
2022-12-14T02:04:51.429Z,54.85
2022-12-14T02:07:18.763Z,58.33
2022-12-14T02:09:47.656Z,55.38
2022-12-14T02:12:19.319Z,57.92
2022-12-14T02:14:47.335Z,58.20
2022-12-14T02:17:15.438Z,54.05
2022-12-14T02:19:49.448Z,52.40
2022-12-14T02:22:43.722Z,59.28
2022-12-14T02:25:53.405Z,58.22
2022-12-14T02:29:00.697Z,57.85
2022-12-14T02:31:49.176Z,58.95
2022-12-14T02:34:42.532Z,58.13
2022-12-14T02:37:41.704Z,55.42
2022-12-14T02:40:28.331Z,55.20
2022-12-14T02:43:03.363Z,54.08
2022-12-14T02:45:48.155Z,55.50
2022-12-14T02:48:26.237Z,61.17
2022-12-14T02:51:03.880Z,58.38
2022-12-14T02:54:03.985Z,58.88
2022-12-14T02:56:43.166Z,57.45
2022-12-14T02:59:11.362Z,52.95
2022-12-14T03:01:39.494Z,60.73
2022-12-14T03:04:07.337Z,61.57
2022-12-14T03:06:34.987Z,61.22
2022-12-14T03:09:16.258Z,62.40
2022-12-14T03:11:51.201Z,58.05
2022-12-14T03:14:30.082Z,59.67
2022-12-14T03:17:02.384Z,60.70
2022-12-14T03:19:39.438Z,62.40
2022-12-14T03:22:15.696Z,66.80
2022-12-14T03:24:55.715Z,61.00
2022-12-14T03:27:24.411Z,61.70
2022-12-14T03:30:02.421Z,66.22
2022-12-14T03:32:32.147Z,67.30
2022-12-14T03:35:09.262Z,65.35
2022-12-14T03:37:52.962Z,64.18
2022-12-14T03:40:56.060Z,63.47
2022-12-14T03:43:32.754Z,60.78
2022-12-14T03:46:13.690Z,64.88
2022-12-14T03:49:19.082Z,65.30
2022-12-14T03:51:52.056Z,72.20
2022-12-14T03:54:36.014Z,70.57
2022-12-14T03:57:27.528Z,65.22
2022-12-14T04:00:09.907Z,57.78
2022-12-14T04:03:08.917Z,69.63
2022-12-14T04:05:47.023Z,69.07
2022-12-14T04:08:33.070Z,63.83
2022-12-14T04:11:19.968Z,57.85
2022-12-14T04:14:11.841Z,64.35
2022-12-14T04:16:59.918Z,60.58
2022-12-14T04:19:37.758Z,68.20
2022-12-14T04:22:18.033Z,71.70
2022-12-14T04:25:18.049Z,64.60
2022-12-14T04:27:54.410Z,64.93
2022-12-14T04:30:21.756Z,61.38
2022-12-14T04:33:26.155Z,67.97
2022-12-14T04:35:56.360Z,61.30
2022-12-14T04:38:30.210Z,65.75
2022-12-14T04:40:59.660Z,68.85
2022-12-14T04:43:31.954Z,58.78
2022-12-14T04:46:06.904Z,62.25
2022-12-14T04:48:55.824Z,58.17
2022-12-14T04:51:48.175Z,57.10
2022-12-14T04:54:25.904Z,57.97
2022-12-14T04:57:19.516Z,59.13
2022-12-14T04:59:47.409Z,58.90
2022-12-14T05:02:29.691Z,61.60
2022-12-14T05:05:14.632Z,59.72
2022-12-14T05:08:02.984Z,56.17
2022-12-14T05:10:44.885Z,65.07
2022-12-14T05:13:31.710Z,53.30
2022-12-14T05:15:59.491Z,66.32
2022-12-14T05:18:26.932Z,60.33
2022-12-14T05:20:54.288Z,53.67
2022-12-14T05:23:22.010Z,55.92
2022-12-14T05:25:49.360Z,52.17
2022-12-14T05:28:17.019Z,51.40
2022-12-14T05:30:49.074Z,53.08
2022-12-14T05:33:20.493Z,50.28
2022-12-14T05:35:47.873Z,53.70
2022-12-14T05:38:15.115Z,55.67
2022-12-14T05:40:42.432Z,55.35
2022-12-14T05:43:12.286Z,53.42
2022-12-14T05:45:39.658Z,45.03
2022-12-14T05:48:06.977Z,57.92
2022-12-14T05:50:34.232Z,52.70
2022-12-14T05:53:01.642Z,51.45
2022-12-14T05:55:28.976Z,48.13
2022-12-14T05:57:56.631Z,51.50
2022-12-14T06:00:23.964Z,52.53
2022-12-14T06:02:51.438Z,57.80
2022-12-14T06:05:18.732Z,50.70
2022-12-14T06:07:46.063Z,58.88
2022-12-14T06:10:13.251Z,53.80
2022-12-14T06:12:40.559Z,57.92
2022-12-14T06:15:08.600Z,47.88
2022-12-14T06:17:36.465Z,57.03
2022-12-14T06:20:04.800Z,54.47
2022-12-14T06:22:32.147Z,56.67
2022-12-14T06:24:59.522Z,55.67
2022-12-14T06:27:26.920Z,49.88
2022-12-14T06:29:54.126Z,52.45
2022-12-14T06:32:21.281Z,51.42
2022-12-14T06:34:48.535Z,49.85
2022-12-14T06:37:16.006Z,51.55
2022-12-14T06:39:43.158Z,55.35
2022-12-14T06:42:11.269Z,59.97
2022-12-14T06:44:38.422Z,51.35
2022-12-14T06:47:05.717Z,51.50
2022-12-14T06:49:32.903Z,50.45
2022-12-14T06:52:00.118Z,57.30
2022-12-14T06:54:27.535Z,57.67
2022-12-14T06:56:54.744Z,59.78
2022-12-14T06:59:22.083Z,47.33
2022-12-14T07:01:49.809Z,46.90
2022-12-14T07:04:18.695Z,52.47
2022-12-14T07:06:45.853Z,57.40
2022-12-14T07:09:14.142Z,50.38
2022-12-14T07:11:41.906Z,48.63
2022-12-14T07:14:11.009Z,49.47
2022-12-14T07:19:05.287Z,44.47
2022-12-14T07:21:36.357Z,46.33
2022-12-14T07:24:03.716Z,45.95
2022-12-14T07:26:31.054Z,49.38
2022-12-14T07:29:00.628Z,50.90
2022-12-14T07:31:28.974Z,53.75
2022-12-14T07:33:58.890Z,49.45
2022-12-14T07:36:27.631Z,55.80
2022-12-14T07:38:55.783Z,52.08
2022-12-14T07:41:30.507Z,48.80
2022-12-14T07:43:59.134Z,51.10
2022-12-14T07:46:28.097Z,60.85
2022-12-14T07:48:56.693Z,61.17
2022-12-14T07:51:26.078Z,49.70
2022-12-14T07:53:54.611Z,51.03
2022-12-14T07:56:25.007Z,52.30
2022-12-14T07:58:52.681Z,46.22
2022-12-14T08:01:40.623Z,63.28
2022-12-14T08:04:10.461Z,66.88
2022-12-14T08:06:38.302Z,78.47
2022-12-14T08:09:06.985Z,72.07
2022-12-14T08:11:34.193Z,85.90
2022-12-14T08:14:04.481Z,83.22
2022-12-14T08:16:32.165Z,66.82
2022-12-14T08:19:00.189Z,65.30
2022-12-14T08:21:28.242Z,62.42
2022-12-14T08:23:56.069Z,61.90
2022-12-14T08:26:25.577Z,71.25
2022-12-14T08:28:57.458Z,69.50
2022-12-14T08:31:28.225Z,83.80
2022-12-14T08:33:55.605Z,56.08
2022-12-14T08:36:27.962Z,53.45
2022-12-14T08:38:56.880Z,52.38
2022-12-14T08:41:24.663Z,56.85
2022-12-14T08:43:54.158Z,50.13
2022-12-14T08:46:22.161Z,46.17
2022-12-14T08:48:52.461Z,60.35
2022-12-14T08:51:20.286Z,45.67
2022-12-14T08:53:47.835Z,49.58
2022-12-14T08:56:18.163Z,52.55
2022-12-14T08:58:45.943Z,52.05
2022-12-14T09:01:15.915Z,53.65
2022-12-14T09:03:47.420Z,57.15
2022-12-14T09:06:21.412Z,49.17
2022-12-14T09:08:49.770Z,53.72
2022-12-14T09:11:18.962Z,59.95
2022-12-14T09:13:46.663Z,64.78
2022-12-14T09:16:18.545Z,64.20
2022-12-14T09:18:46.916Z,70.22
2022-12-14T09:21:14.291Z,70.47
2022-12-14T09:23:42.231Z,59.65
2022-12-14T09:26:12.334Z,55.58
2022-12-14T09:28:40.633Z,59.38
2022-12-14T09:31:10.570Z,55.70
2022-12-14T09:33:38.016Z,59.92
2022-12-14T09:36:07.931Z,53.13
2022-12-14T09:38:37.809Z,53.90
2022-12-14T09:41:07.991Z,52.63
2022-12-14T09:43:36.933Z,52.88
2022-12-14T09:46:27.650Z,56.25
2022-12-14T09:48:56.631Z,49.58
2022-12-14T09:51:35.187Z,50.88
2022-12-14T09:54:05.927Z,49.70
2022-12-14T09:56:33.997Z,49.72
2022-12-14T09:59:02.740Z,45.80
2022-12-14T10:01:55.522Z,46.95
2022-12-14T10:05:03.278Z,46.63
2022-12-14T10:07:53.533Z,51.17
2022-12-14T10:10:59.943Z,45.45
2022-12-14T10:13:48.459Z,47.10
2022-12-14T10:16:35.832Z,44.92
2022-12-14T10:19:27.704Z,38.97
2022-12-14T10:22:03.112Z,38.65
2022-12-14T10:24:44.202Z,39.45
2022-12-14T10:27:22.071Z,41.90
2022-12-14T10:29:57.312Z,41.10
2022-12-14T10:32:36.158Z,47.85
2022-12-14T10:35:26.944Z,43.63
2022-12-14T10:38:19.686Z,46.40
2022-12-14T10:40:50.034Z,41.42
2022-12-14T10:43:26.373Z,37.70
2022-12-14T10:46:14.885Z,44.15
2022-12-14T10:49:00.426Z,42.92
2022-12-14T10:51:46.855Z,46.80
2022-12-14T10:54:34.067Z,47.35
2022-12-14T10:57:01.560Z,47.45
2022-12-14T10:59:38.400Z,45.55
2022-12-14T11:02:17.062Z,43.40
2022-12-14T11:05:13.849Z,46.90
2022-12-14T11:07:43.339Z,44.33
2022-12-14T11:10:13.814Z,43.17
2022-12-14T11:12:41.812Z,54.08
2022-12-14T11:15:24.244Z,47.80
2022-12-14T11:18:01.993Z,56.60
2022-12-14T11:20:29.685Z,47.60
2022-12-14T11:23:04.470Z,39.78
2022-12-14T11:25:49.517Z,50.65
2022-12-14T11:28:38.771Z,47.83
2022-12-14T11:31:11.994Z,44.65
2022-12-14T11:33:44.787Z,42.38
2022-12-14T11:36:30.017Z,46.45
2022-12-14T11:39:00.739Z,42.33
2022-12-14T11:41:38.329Z,45.80
2022-12-14T11:44:14.652Z,39.17
2022-12-14T11:47:02.608Z,44.13
2022-12-14T11:49:40.112Z,43.90
2022-12-14T11:52:15.433Z,45.33
2022-12-14T11:54:50.023Z,44.53
2022-12-14T11:57:31.488Z,49.20
2022-12-14T12:00:06.414Z,40.83
2022-12-14T12:02:35.274Z,42.63
2022-12-14T12:05:20.271Z,47.83
2022-12-14T12:07:50.683Z,41.53
2022-12-14T12:10:38.626Z,46.10
2022-12-14T12:13:07.260Z,40.10
2022-12-14T12:15:49.925Z,35.28
2022-12-14T12:18:41.648Z,42.92
2022-12-14T12:21:29.405Z,42.90
2022-12-14T12:24:22.192Z,33.50
2022-12-14T12:26:58.898Z,37.90
2022-12-14T12:29:49.429Z,39.53
2022-12-14T12:32:25.675Z,36.58
2022-12-14T12:35:14.724Z,41.67
2022-12-14T12:37:45.793Z,36.67
2022-12-14T12:40:24.460Z,40.28
2022-12-14T12:43:03.610Z,35.33
2022-12-14T12:48:23.185Z,39.55
2022-12-14T12:50:59.697Z,34.67
2022-12-14T12:53:47.233Z,37.15
2022-12-14T12:56:22.063Z,36.05
2022-12-14T12:58:52.930Z,43.30
2022-12-14T13:01:31.106Z,37.25
2022-12-14T13:04:03.472Z,37.70
2022-12-14T13:06:40.534Z,34.65
2022-12-14T13:09:18.231Z,39.30
2022-12-14T13:11:46.020Z,42.25
2022-12-14T13:14:27.977Z,43.28
2022-12-14T13:16:55.781Z,40.53
2022-12-14T13:19:54.414Z,43.22
2022-12-14T13:22:31.197Z,40.90
2022-12-14T13:25:03.596Z,39.22
2022-12-14T13:27:35.469Z,34.42
2022-12-14T13:30:18.677Z,42.75
2022-12-14T13:33:23.486Z,36.83
2022-12-14T13:36:20.468Z,42.05
2022-12-14T13:38:58.711Z,38.60
2022-12-14T13:41:48.685Z,41.80
2022-12-14T13:44:34.785Z,40.90
2022-12-14T13:47:06.485Z,40.55
2022-12-14T13:49:34.039Z,43.20
2022-12-14T13:52:01.714Z,42.58
2022-12-14T13:54:36.017Z,39.90
2022-12-14T13:57:12.403Z,40.40
2022-12-14T13:59:44.453Z,46.88
2022-12-14T14:02:30.018Z,43.90
2022-12-14T14:05:16.276Z,40.47
2022-12-14T14:07:55.895Z,41.90
2022-12-14T14:10:38.950Z,42.10
2022-12-14T14:13:27.976Z,43.90
2022-12-14T14:16:27.989Z,42.17
2022-12-14T14:19:04.629Z,42.10
2022-12-14T14:22:06.014Z,41.33
2022-12-14T14:24:52.453Z,41.10
2022-12-14T14:27:21.769Z,46.03
2022-12-14T14:32:38.928Z,40.40
2022-12-14T14:35:27.462Z,37.95
2022-12-14T14:38:00.237Z,40.58
2022-12-14T14:40:51.314Z,38.75
2022-12-14T14:43:29.673Z,37.58
2022-12-14T14:46:00.673Z,47.15
2022-12-14T14:48:40.167Z,43.97
2022-12-14T14:51:20.494Z,44.95
2022-12-14T14:53:50.433Z,52.20
2022-12-14T14:56:38.361Z,41.00
2022-12-14T14:59:17.818Z,43.92
2022-12-14T15:02:00.582Z,46.53
2022-12-14T15:04:47.722Z,53.58
2022-12-14T15:07:21.963Z,61.00
2022-12-14T15:09:52.926Z,53.10
2022-12-14T15:12:41.683Z,57.53
2022-12-14T15:15:21.343Z,58.47
2022-12-14T15:17:49.778Z,48.80
2022-12-14T15:20:26.776Z,53.72
2022-12-14T15:22:55.941Z,47.67
2022-12-14T15:25:32.124Z,49.38
2022-12-14T15:28:05.420Z,54.17
2022-12-14T15:30:32.775Z,52.63
2022-12-14T15:33:09.565Z,55.15
2022-12-14T15:35:39.434Z,56.42
2022-12-14T15:38:12.786Z,55.33
2022-12-14T15:40:41.218Z,54.95
2022-12-14T15:43:20.869Z,59.30
2022-12-14T15:45:53.190Z,59.08
2022-12-14T15:48:30.934Z,55.88
2022-12-14T15:51:06.239Z,50.67
2022-12-14T15:53:37.374Z,55.42
2022-12-14T15:56:28.444Z,54.15
2022-12-14T15:58:58.108Z,53.72
2022-12-14T16:01:39.163Z,56.75
2022-12-14T16:04:12.252Z,57.30
2022-12-14T16:06:45.769Z,62.35
2022-12-14T16:09:27.331Z,50.88
2022-12-14T16:12:07.040Z,54.03
2022-12-14T16:14:48.125Z,51.78
2022-12-14T16:17:22.989Z,49.15
2022-12-14T16:19:59.452Z,53.85
2022-12-14T16:22:32.509Z,52.35
2022-12-14T16:25:11.687Z,55.65
2022-12-14T16:30:27.686Z,57.03
2022-12-14T16:33:16.342Z,53.80
2022-12-14T16:35:45.024Z,183.52
2022-12-14T16:38:16.738Z,170.13
2022-12-14T16:40:57.522Z,70.85
2022-12-14T16:43:43.274Z,59.15
2022-12-14T16:46:11.849Z,58.47
2022-12-14T16:48:41.988Z,54.72
2022-12-14T16:51:44.892Z,57.35
2022-12-14T16:54:25.218Z,79.90
2022-12-14T16:56:57.976Z,211.02
2022-12-14T16:59:44.134Z,95.38
2022-12-14T17:02:55.131Z,129.18
2022-12-14T17:05:23.739Z,72.30
2022-12-14T17:07:50.896Z,60.15
2022-12-14T17:10:20.761Z,60.88
2022-12-14T17:12:49.030Z,57.80
2022-12-14T17:15:18.512Z,65.47
2022-12-14T17:17:49.346Z,57.63
2022-12-14T17:20:27.759Z,68.22
2022-12-14T17:22:58.662Z,59.90
2022-12-14T17:25:27.274Z,61.80
2022-12-14T17:27:54.651Z,64.07
2022-12-14T17:30:24.320Z,67.63
2022-12-14T17:32:53.958Z,65.22
2022-12-14T17:35:30.015Z,64.22
2022-12-14T17:37:57.597Z,68.28
2022-12-14T17:40:25.964Z,66.53
2022-12-14T17:42:55.143Z,62.03
2022-12-14T17:47:54.555Z,66.07
2022-12-14T17:50:22.337Z,67.53
2022-12-14T17:52:53.467Z,73.72
2022-12-14T17:55:25.418Z,68.20
2022-12-14T17:57:54.479Z,80.72
2022-12-14T18:00:43.366Z,66.03
2022-12-14T18:03:11.923Z,75.05
2022-12-14T18:05:48.326Z,77.43
2022-12-14T18:08:19.079Z,74.03
2022-12-14T18:10:47.654Z,68.57
2022-12-14T18:13:15.684Z,73.32
2022-12-14T18:15:49.800Z,78.28
2022-12-14T18:18:19.049Z,75.07
2022-12-14T18:20:50.695Z,73.15
2022-12-14T18:23:21.685Z,73.40
2022-12-14T18:25:56.082Z,83.70
2022-12-14T18:28:30.155Z,84.00
2022-12-14T18:31:02.170Z,82.88
2022-12-14T18:33:29.897Z,85.53
2022-12-14T18:35:57.710Z,74.53
2022-12-14T18:38:25.669Z,84.05
2022-12-14T18:40:55.144Z,86.32
2022-12-14T18:43:25.397Z,72.10
2022-12-14T18:45:54.249Z,78.10
2022-12-14T18:48:22.371Z,73.40
2022-12-14T18:50:50.562Z,76.75
2022-12-14T18:53:20.834Z,83.50
2022-12-14T18:55:48.709Z,83.07
2022-12-14T18:58:36.322Z,81.40
2022-12-14T19:01:03.767Z,79.10
2022-12-14T19:03:32.716Z,76.72
2022-12-14T19:06:42.149Z,84.18
2022-12-14T19:08:57.125Z,69.97
2022-12-14T19:11:39.098Z,80.63
2022-12-14T19:14:07.076Z,82.35
2022-12-14T19:16:35.014Z,72.70
2022-12-14T19:19:05.285Z,87.70
2022-12-14T19:21:32.716Z,73.72
2022-12-14T19:24:01.163Z,83.60
2022-12-14T19:26:31.298Z,88.63
2022-12-14T19:28:58.644Z,87.90
2022-12-14T19:31:26.164Z,85.03
2022-12-14T19:33:54.028Z,92.55
2022-12-14T19:36:21.463Z,87.88
2022-12-14T19:38:49.318Z,92.82
2022-12-14T19:41:20.520Z,88.65
2022-12-14T19:43:48.749Z,80.88
2022-12-14T19:46:18.171Z,86.63
2022-12-14T19:48:46.283Z,82.22
2022-12-14T19:51:14.528Z,86.25
2022-12-14T19:53:42.827Z,90.07
2022-12-14T19:56:10.606Z,83.72
2022-12-14T19:58:40.947Z,96.60
2022-12-14T20:01:09.773Z,79.00
2022-12-14T20:03:40.340Z,85.43
2022-12-14T20:06:10.462Z,96.90
2022-12-14T20:08:39.352Z,79.78
2022-12-14T20:11:11.058Z,82.65
2022-12-14T20:13:38.391Z,94.07
2022-12-14T20:16:05.997Z,90.60
2022-12-14T20:18:33.648Z,87.20
2022-12-14T20:21:06.045Z,83.15
2022-12-14T20:23:36.277Z,77.82
2022-12-14T20:26:06.848Z,85.50
2022-12-14T20:28:34.362Z,84.85
2022-12-14T20:31:04.484Z,85.32
2022-12-14T20:33:32.833Z,81.03
2022-12-14T20:36:00.579Z,84.55
2022-12-14T20:38:28.326Z,91.63
2022-12-14T20:40:56.145Z,82.57
2022-12-14T20:43:23.426Z,95.53
2022-12-14T20:45:50.620Z,91.32
2022-12-14T20:48:17.776Z,93.72
2022-12-14T20:50:50.533Z,93.68
2022-12-14T20:53:20.010Z,100.28
2022-12-14T20:55:47.182Z,93.43
2022-12-14T20:58:14.451Z,101.35
2022-12-14T21:00:41.846Z,104.68
2022-12-14T21:03:09.271Z,103.75
2022-12-14T21:05:41.716Z,102.32
2022-12-14T21:08:09.593Z,99.72
2022-12-14T21:10:37.216Z,95.47
2022-12-14T21:13:07.619Z,88.63
2022-12-14T21:15:35.682Z,93.70
2022-12-14T21:18:02.953Z,85.18
2022-12-14T21:20:30.374Z,83.68
2022-12-14T21:22:57.610Z,88.72
2022-12-14T21:25:24.829Z,84.38
2022-12-14T21:27:52.067Z,87.20
2022-12-14T21:30:19.320Z,89.78
2022-12-14T21:32:46.562Z,84.72
2022-12-14T21:35:17.641Z,85.72
2022-12-14T21:37:45.213Z,88.97
2022-12-14T21:40:33.018Z,87.13
2022-12-14T21:43:00.320Z,88.10
2022-12-14T21:45:30.033Z,83.57
2022-12-14T21:48:00.150Z,70.38
2022-12-14T21:50:27.454Z,88.97
2022-12-14T21:52:54.728Z,78.13
2022-12-14T21:55:21.948Z,76.82
2022-12-14T21:58:08.114Z,89.68
2022-12-14T22:00:37.170Z,88.05
2022-12-14T22:03:05.347Z,84.32
2022-12-14T22:05:32.942Z,83.65
2022-12-14T22:08:00.722Z,85.05
2022-12-14T22:10:27.930Z,82.72
2022-12-14T22:12:55.181Z,86.88
2022-12-14T22:15:22.400Z,81.95
2022-12-14T22:17:52.565Z,90.60
2022-12-14T22:20:19.935Z,82.80
2022-12-14T22:22:47.334Z,90.60
2022-12-14T22:25:15.523Z,87.28
2022-12-14T22:27:42.878Z,96.77
2022-12-14T22:30:16.794Z,80.45
2022-12-14T22:32:44.030Z,93.90
2022-12-14T22:35:11.373Z,92.03
2022-12-14T22:37:38.713Z,94.88
2022-12-14T22:40:06.977Z,97.35
2022-12-14T22:42:34.848Z,108.60
2022-12-14T22:45:02.007Z,122.88
2022-12-14T22:47:29.233Z,127.38
2022-12-14T22:49:56.377Z,111.70
2022-12-14T22:52:25.130Z,105.13
2022-12-14T22:54:54.023Z,98.60
2022-12-14T22:57:21.704Z,96.20
2022-12-14T22:59:59.594Z,107.80
2022-12-14T23:02:27.964Z,98.45
2022-12-14T23:04:55.819Z,99.30
2022-12-14T23:07:23.304Z,97.05
2022-12-14T23:10:08.995Z,81.78
2022-12-14T23:12:55.739Z,87.72
2022-12-14T23:15:41.527Z,90.85
2022-12-14T23:18:27.904Z,87.38
2022-12-14T23:21:13.797Z,92.97
2022-12-14T23:24:01.105Z,96.80
2022-12-14T23:26:47.521Z,97.90
2022-12-14T23:29:33.748Z,106.03
2022-12-14T23:32:19.413Z,103.38
2022-12-14T23:35:05.338Z,102.57
2022-12-14T23:37:51.030Z,96.18
2022-12-14T23:40:36.690Z,94.43
2022-12-14T23:43:35.549Z,93.55
2022-12-14T23:49:12.028Z,88.20
2022-12-14T23:52:01.347Z,96.40
2022-12-14T23:54:47.924Z,90.18
2022-12-14T23:57:33.688Z,107.15
